sensor_id;sensor_type;location;lat;lon;timestamp;P1;durP1;ratioP1;P2;durP2;ratioP2
44116;SDS011;29781;49.480;8.512;2023-06-22T00:01:52;8.70;;;6.20;;
44116;SDS011;29781;49.480;8.512;2023-06-22T00:04:17;8.00;;;6.63;;
44116;SDS011;29781;49.480;8.512;2023-06-22T00:06:43;10.45;;;6.05;;
44116;SDS011;29781;49.480;8.512;2023-06-22T00:09:08;11.80;;;5.90;;
44116;SDS011;29781;49.480;8.512;2023-06-22T00:11:35;9.85;;;5.88;;
44116;SDS011;29781;49.480;8.512;2023-06-22T00:14:01;6.90;;;5.95;;
44116;SDS011;29781;49.480;8.512;2023-06-22T00:16:27;7.00;;;5.93;;
44116;SDS011;29781;49.480;8.512;2023-06-22T00:18:52;8.57;;;6.00;;
44116;SDS011;29781;49.480;8.512;2023-06-22T00:21:18;8.25;;;6.25;;
44116;SDS011;29781;49.480;8.512;2023-06-22T00:23:45;8.50;;;6.10;;
44116;SDS011;29781;49.480;8.512;2023-06-22T00:26:12;6.63;;;5.93;;
44116;SDS011;29781;49.480;8.512;2023-06-22T00:28:38;6.68;;;5.97;;
44116;SDS011;29781;49.480;8.512;2023-06-22T00:31:03;6.28;;;5.78;;
44116;SDS011;29781;49.480;8.512;2023-06-22T00:33:29;6.22;;;5.70;;
44116;SDS011;29781;49.480;8.512;2023-06-22T00:35:55;5.85;;;5.35;;
44116;SDS011;29781;49.480;8.512;2023-06-22T00:38:20;7.05;;;5.75;;
44116;SDS011;29781;49.480;8.512;2023-06-22T00:40:46;6.25;;;5.65;;
44116;SDS011;29781;49.480;8.512;2023-06-22T00:43:11;6.78;;;6.07;;
44116;SDS011;29781;49.480;8.512;2023-06-22T00:45:37;7.13;;;6.53;;
44116;SDS011;29781;49.480;8.512;2023-06-22T00:48:03;9.27;;;6.47;;
44116;SDS011;29781;49.480;8.512;2023-06-22T00:50:30;9.10;;;8.18;;
44116;SDS011;29781;49.480;8.512;2023-06-22T00:53:08;9.90;;;7.72;;
44116;SDS011;29781;49.480;8.512;2023-06-22T00:55:38;15.77;;;8.73;;
44116;SDS011;29781;49.480;8.512;2023-06-22T00:58:11;17.77;;;9.52;;
44116;SDS011;29781;49.480;8.512;2023-06-22T01:00:37;13.77;;;9.70;;
44116;SDS011;29781;49.480;8.512;2023-06-22T01:03:04;14.07;;;10.05;;
44116;SDS011;29781;49.480;8.512;2023-06-22T01:05:33;18.15;;;10.48;;
44116;SDS011;29781;49.480;8.512;2023-06-22T01:10:47;11.93;;;10.68;;
44116;SDS011;29781;49.480;8.512;2023-06-22T01:16:03;12.23;;;10.38;;
44116;SDS011;29781;49.480;8.512;2023-06-22T01:18:35;13.75;;;10.23;;
44116;SDS011;29781;49.480;8.512;2023-06-22T01:21:04;11.85;;;10.38;;
44116;SDS011;29781;49.480;8.512;2023-06-22T01:28:53;12.25;;;9.63;;
44116;SDS011;29781;49.480;8.512;2023-06-22T01:31:22;14.88;;;9.65;;
44116;SDS011;29781;49.480;8.512;2023-06-22T01:33:50;10.38;;;9.40;;
44116;SDS011;29781;49.480;8.512;2023-06-22T01:36:19;11.32;;;10.07;;
44116;SDS011;29781;49.480;8.512;2023-06-22T01:38:46;11.30;;;10.10;;
44116;SDS011;29781;49.480;8.512;2023-06-22T01:41:12;9.90;;;8.93;;
44116;SDS011;29781;49.480;8.512;2023-06-22T01:43:38;12.85;;;9.77;;
44116;SDS011;29781;49.480;8.512;2023-06-22T01:46:04;11.13;;;8.90;;
44116;SDS011;29781;49.480;8.512;2023-06-22T01:48:30;11.82;;;9.43;;
44116;SDS011;29781;49.480;8.512;2023-06-22T01:50:56;11.50;;;9.15;;
44116;SDS011;29781;49.480;8.512;2023-06-22T01:53:22;10.75;;;9.63;;
44116;SDS011;29781;49.480;8.512;2023-06-22T01:55:48;12.25;;;9.88;;
44116;SDS011;29781;49.480;8.512;2023-06-22T01:58:14;12.07;;;9.88;;
44116;SDS011;29781;49.480;8.512;2023-06-22T02:00:42;10.95;;;9.85;;
44116;SDS011;29781;49.480;8.512;2023-06-22T02:03:14;11.85;;;9.45;;
44116;SDS011;29781;49.480;8.512;2023-06-22T02:05:56;10.75;;;9.43;;
44116;SDS011;29781;49.480;8.512;2023-06-22T02:08:28;11.23;;;9.38;;
44116;SDS011;29781;49.480;8.512;2023-06-22T02:10:59;9.85;;;8.68;;
44116;SDS011;29781;49.480;8.512;2023-06-22T02:13:25;10.23;;;8.88;;
44116;SDS011;29781;49.480;8.512;2023-06-22T02:15:51;9.45;;;8.35;;
44116;SDS011;29781;49.480;8.512;2023-06-22T02:18:17;11.60;;;9.10;;
44116;SDS011;29781;49.480;8.512;2023-06-22T02:20:43;9.88;;;8.90;;
44116;SDS011;29781;49.480;8.512;2023-06-22T02:23:08;10.07;;;9.18;;
44116;SDS011;29781;49.480;8.512;2023-06-22T02:25:34;11.60;;;10.32;;
44116;SDS011;29781;49.480;8.512;2023-06-22T02:28:00;13.55;;;10.68;;
44116;SDS011;29781;49.480;8.512;2023-06-22T02:30:26;13.00;;;10.32;;
44116;SDS011;29781;49.480;8.512;2023-06-22T02:32:52;11.90;;;10.15;;
44116;SDS011;29781;49.480;8.512;2023-06-22T02:35:24;15.30;;;10.10;;
44116;SDS011;29781;49.480;8.512;2023-06-22T02:37:59;12.50;;;11.20;;
44116;SDS011;29781;49.480;8.512;2023-06-22T02:40:25;14.13;;;10.63;;
44116;SDS011;29781;49.480;8.512;2023-06-22T02:42:51;12.13;;;10.93;;
44116;SDS011;29781;49.480;8.512;2023-06-22T02:45:17;13.48;;;10.85;;
44116;SDS011;29781;49.480;8.512;2023-06-22T02:47:42;12.73;;;11.48;;
44116;SDS011;29781;49.480;8.512;2023-06-22T02:50:08;13.57;;;12.05;;
44116;SDS011;29781;49.480;8.512;2023-06-22T02:52:34;12.85;;;11.55;;
44116;SDS011;29781;49.480;8.512;2023-06-22T02:54:59;13.63;;;12.30;;
44116;SDS011;29781;49.480;8.512;2023-06-22T02:57:25;17.77;;;12.15;;
44116;SDS011;29781;49.480;8.512;2023-06-22T02:59:50;14.30;;;12.75;;
44116;SDS011;29781;49.480;8.512;2023-06-22T03:02:16;16.83;;;12.13;;
44116;SDS011;29781;49.480;8.512;2023-06-22T03:04:41;16.85;;;12.52;;
44116;SDS011;29781;49.480;8.512;2023-06-22T03:07:08;14.25;;;12.40;;
44116;SDS011;29781;49.480;8.512;2023-06-22T03:09:33;14.05;;;12.48;;
44116;SDS011;29781;49.480;8.512;2023-06-22T03:11:59;12.82;;;11.55;;
44116;SDS011;29781;49.480;8.512;2023-06-22T03:14:24;13.85;;;12.32;;
44116;SDS011;29781;49.480;8.512;2023-06-22T03:16:50;12.88;;;11.68;;
44116;SDS011;29781;49.480;8.512;2023-06-22T03:19:15;15.35;;;12.38;;
44116;SDS011;29781;49.480;8.512;2023-06-22T03:21:41;15.35;;;12.32;;
44116;SDS011;29781;49.480;8.512;2023-06-22T03:24:07;14.30;;;12.82;;
44116;SDS011;29781;49.480;8.512;2023-06-22T03:26:33;16.77;;;12.63;;
44116;SDS011;29781;49.480;8.512;2023-06-22T03:28:59;12.80;;;11.57;;
44116;SDS011;29781;49.480;8.512;2023-06-22T03:31:25;15.20;;;12.50;;
44116;SDS011;29781;49.480;8.512;2023-06-22T03:33:51;14.07;;;12.68;;
44116;SDS011;29781;49.480;8.512;2023-06-22T03:36:17;16.67;;;12.88;;
44116;SDS011;29781;49.480;8.512;2023-06-22T03:38:49;13.88;;;12.38;;
44116;SDS011;29781;49.480;8.512;2023-06-22T03:41:15;14.40;;;12.90;;
44116;SDS011;29781;49.480;8.512;2023-06-22T03:43:40;14.07;;;12.20;;
44116;SDS011;29781;49.480;8.512;2023-06-22T03:46:06;18.88;;;13.20;;
44116;SDS011;29781;49.480;8.512;2023-06-22T03:48:32;14.50;;;12.65;;
44116;SDS011;29781;49.480;8.512;2023-06-22T03:50:58;17.50;;;13.02;;
44116;SDS011;29781;49.480;8.512;2023-06-22T03:53:24;14.45;;;12.93;;
44116;SDS011;29781;49.480;8.512;2023-06-22T03:55:50;16.88;;;12.93;;
44116;SDS011;29781;49.480;8.512;2023-06-22T03:58:17;20.33;;;13.00;;
44116;SDS011;29781;49.480;8.512;2023-06-22T04:00:47;17.83;;;12.80;;
44116;SDS011;29781;49.480;8.512;2023-06-22T04:03:16;15.95;;;13.18;;
44116;SDS011;29781;49.480;8.512;2023-06-22T04:05:44;14.27;;;12.85;;
44116;SDS011;29781;49.480;8.512;2023-06-22T04:08:09;14.73;;;13.25;;
44116;SDS011;29781;49.480;8.512;2023-06-22T04:10:35;13.23;;;11.88;;
44116;SDS011;29781;49.480;8.512;2023-06-22T04:13:01;17.10;;;11.82;;
44116;SDS011;29781;49.480;8.512;2023-06-22T04:15:26;14.27;;;11.55;;
44116;SDS011;29781;49.480;8.512;2023-06-22T04:17:54;14.73;;;12.45;;
44116;SDS011;29781;49.480;8.512;2023-06-22T04:20:20;13.35;;;10.60;;
44116;SDS011;29781;49.480;8.512;2023-06-22T04:22:45;12.68;;;10.27;;
44116;SDS011;29781;49.480;8.512;2023-06-22T04:25:11;11.70;;;10.05;;
44116;SDS011;29781;49.480;8.512;2023-06-22T04:27:36;11.52;;;9.68;;
44116;SDS011;29781;49.480;8.512;2023-06-22T04:30:05;12.18;;;9.75;;
44116;SDS011;29781;49.480;8.512;2023-06-22T04:32:31;17.15;;;9.73;;
44116;SDS011;29781;49.480;8.512;2023-06-22T04:34:57;9.23;;;8.27;;
44116;SDS011;29781;49.480;8.512;2023-06-22T04:37:25;9.93;;;8.88;;
44116;SDS011;29781;49.480;8.512;2023-06-22T04:39:50;9.32;;;8.45;;
44116;SDS011;29781;49.480;8.512;2023-06-22T04:42:16;10.20;;;8.55;;
44116;SDS011;29781;49.480;8.512;2023-06-22T04:44:42;11.90;;;8.05;;
44116;SDS011;29781;49.480;8.512;2023-06-22T04:47:07;9.75;;;8.75;;
44116;SDS011;29781;49.480;8.512;2023-06-22T04:49:34;8.80;;;7.95;;
44116;SDS011;29781;49.480;8.512;2023-06-22T04:52:08;8.50;;;7.70;;
44116;SDS011;29781;49.480;8.512;2023-06-22T04:54:36;12.75;;;8.93;;
44116;SDS011;29781;49.480;8.512;2023-06-22T04:57:05;13.10;;;9.15;;
44116;SDS011;29781;49.480;8.512;2023-06-22T04:59:36;13.20;;;9.55;;
44116;SDS011;29781;49.480;8.512;2023-06-22T05:02:04;11.05;;;9.93;;
44116;SDS011;29781;49.480;8.512;2023-06-22T05:04:30;12.70;;;9.00;;
44116;SDS011;29781;49.480;8.512;2023-06-22T05:06:56;12.70;;;8.88;;
44116;SDS011;29781;49.480;8.512;2023-06-22T05:09:23;14.73;;;9.30;;
44116;SDS011;29781;49.480;8.512;2023-06-22T05:11:50;11.73;;;8.55;;
44116;SDS011;29781;49.480;8.512;2023-06-22T05:14:15;9.38;;;8.48;;
44116;SDS011;29781;49.480;8.512;2023-06-22T05:16:42;10.00;;;8.95;;
44116;SDS011;29781;49.480;8.512;2023-06-22T05:19:08;10.20;;;8.70;;
44116;SDS011;29781;49.480;8.512;2023-06-22T05:21:34;11.57;;;8.68;;
44116;SDS011;29781;49.480;8.512;2023-06-22T05:23:59;11.25;;;8.40;;
44116;SDS011;29781;49.480;8.512;2023-06-22T05:26:27;10.20;;;8.75;;
44116;SDS011;29781;49.480;8.512;2023-06-22T05:28:57;8.85;;;7.95;;
44116;SDS011;29781;49.480;8.512;2023-06-22T05:31:23;8.93;;;8.02;;
44116;SDS011;29781;49.480;8.512;2023-06-22T05:33:51;9.07;;;7.93;;
44116;SDS011;29781;49.480;8.512;2023-06-22T05:36:17;11.02;;;8.65;;
44116;SDS011;29781;49.480;8.512;2023-06-22T05:38:44;9.18;;;8.27;;
44116;SDS011;29781;49.480;8.512;2023-06-22T05:41:10;11.13;;;9.00;;
44116;SDS011;29781;49.480;8.512;2023-06-22T05:43:36;10.13;;;9.13;;
44116;SDS011;29781;49.480;8.512;2023-06-22T05:46:02;11.07;;;9.40;;
44116;SDS011;29781;49.480;8.512;2023-06-22T05:48:28;10.70;;;8.73;;
44116;SDS011;29781;49.480;8.512;2023-06-22T05:50:54;9.82;;;8.48;;
44116;SDS011;29781;49.480;8.512;2023-06-22T05:53:20;11.00;;;9.88;;
44116;SDS011;29781;49.480;8.512;2023-06-22T05:55:45;9.65;;;8.57;;
44116;SDS011;29781;49.480;8.512;2023-06-22T05:58:11;11.70;;;9.43;;
44116;SDS011;29781;49.480;8.512;2023-06-22T06:00:38;9.73;;;8.73;;
44116;SDS011;29781;49.480;8.512;2023-06-22T06:03:04;9.02;;;8.05;;
44116;SDS011;29781;49.480;8.512;2023-06-22T06:05:30;10.68;;;8.30;;
44116;SDS011;29781;49.480;8.512;2023-06-22T06:07:56;11.00;;;8.68;;
44116;SDS011;29781;49.480;8.512;2023-06-22T06:10:22;10.07;;;7.70;;
44116;SDS011;29781;49.480;8.512;2023-06-22T06:12:48;8.38;;;7.57;;
44116;SDS011;29781;49.480;8.512;2023-06-22T06:15:13;8.73;;;7.93;;
44116;SDS011;29781;49.480;8.512;2023-06-22T06:17:46;7.95;;;7.25;;
44116;SDS011;29781;49.480;8.512;2023-06-22T06:20:12;7.88;;;6.47;;
44116;SDS011;29781;49.480;8.512;2023-06-22T06:22:37;10.88;;;7.63;;
44116;SDS011;29781;49.480;8.512;2023-06-22T06:25:03;9.43;;;7.97;;
44116;SDS011;29781;49.480;8.512;2023-06-22T06:27:29;8.85;;;7.80;;
44116;SDS011;29781;49.480;8.512;2023-06-22T06:29:55;9.10;;;7.25;;
44116;SDS011;29781;49.480;8.512;2023-06-22T06:32:20;8.95;;;8.07;;
44116;SDS011;29781;49.480;8.512;2023-06-22T06:34:46;10.35;;;7.60;;
44116;SDS011;29781;49.480;8.512;2023-06-22T06:37:11;10.20;;;7.70;;
44116;SDS011;29781;49.480;8.512;2023-06-22T06:39:37;8.63;;;7.07;;
44116;SDS011;29781;49.480;8.512;2023-06-22T06:42:02;12.02;;;7.25;;
44116;SDS011;29781;49.480;8.512;2023-06-22T06:44:29;8.07;;;7.13;;
44116;SDS011;29781;49.480;8.512;2023-06-22T06:46:55;8.82;;;6.90;;
44116;SDS011;29781;49.480;8.512;2023-06-22T06:49:20;8.98;;;7.32;;
44116;SDS011;29781;49.480;8.512;2023-06-22T06:51:46;7.78;;;7.07;;
44116;SDS011;29781;49.480;8.512;2023-06-22T06:54:11;9.48;;;7.32;;
44116;SDS011;29781;49.480;8.512;2023-06-22T06:56:37;10.65;;;7.50;;
44116;SDS011;29781;49.480;8.512;2023-06-22T06:59:03;9.13;;;7.68;;
44116;SDS011;29781;49.480;8.512;2023-06-22T07:01:28;8.52;;;7.25;;
44116;SDS011;29781;49.480;8.512;2023-06-22T07:03:58;9.20;;;7.80;;
44116;SDS011;29781;49.480;8.512;2023-06-22T07:06:24;11.45;;;7.70;;
44116;SDS011;29781;49.480;8.512;2023-06-22T07:08:54;9.80;;;7.10;;
44116;SDS011;29781;49.480;8.512;2023-06-22T07:11:20;8.95;;;7.50;;
44116;SDS011;29781;49.480;8.512;2023-06-22T07:13:45;8.07;;;7.05;;
44116;SDS011;29781;49.480;8.512;2023-06-22T07:16:11;10.07;;;7.53;;
44116;SDS011;29781;49.480;8.512;2023-06-22T07:18:36;7.95;;;6.68;;
44116;SDS011;29781;49.480;8.512;2023-06-22T07:21:04;9.70;;;7.20;;
44116;SDS011;29781;49.480;8.512;2023-06-22T07:23:31;7.93;;;6.70;;
44116;SDS011;29781;49.480;8.512;2023-06-22T07:25:57;8.88;;;6.82;;
44116;SDS011;29781;49.480;8.512;2023-06-22T07:28:26;7.10;;;6.03;;
44116;SDS011;29781;49.480;8.512;2023-06-22T07:30:52;7.30;;;6.60;;
44116;SDS011;29781;49.480;8.512;2023-06-22T07:33:18;10.38;;;6.75;;
44116;SDS011;29781;49.480;8.512;2023-06-22T07:35:44;8.68;;;7.30;;
44116;SDS011;29781;49.480;8.512;2023-06-22T07:38:10;7.93;;;6.75;;
44116;SDS011;29781;49.480;8.512;2023-06-22T07:40:35;7.90;;;6.28;;
44116;SDS011;29781;49.480;8.512;2023-06-22T07:43:01;7.43;;;6.63;;
44116;SDS011;29781;49.480;8.512;2023-06-22T07:45:28;7.43;;;6.47;;
44116;SDS011;29781;49.480;8.512;2023-06-22T07:47:54;7.00;;;6.30;;
44116;SDS011;29781;49.480;8.512;2023-06-22T07:50:19;6.55;;;5.90;;
44116;SDS011;29781;49.480;8.512;2023-06-22T07:52:45;7.57;;;5.95;;
44116;SDS011;29781;49.480;8.512;2023-06-22T07:55:12;7.07;;;6.15;;
44116;SDS011;29781;49.480;8.512;2023-06-22T07:57:38;7.63;;;5.82;;
44116;SDS011;29781;49.480;8.512;2023-06-22T08:00:04;7.25;;;5.97;;
44116;SDS011;29781;49.480;8.512;2023-06-22T08:02:41;14.15;;;5.60;;
44116;SDS011;29781;49.480;8.512;2023-06-22T08:05:08;7.00;;;5.55;;
44116;SDS011;29781;49.480;8.512;2023-06-22T08:07:35;7.82;;;6.00;;
44116;SDS011;29781;49.480;8.512;2023-06-22T08:10:02;6.30;;;5.70;;
44116;SDS011;29781;49.480;8.512;2023-06-22T08:12:29;6.22;;;5.63;;
44116;SDS011;29781;49.480;8.512;2023-06-22T08:14:54;8.70;;;6.47;;
44116;SDS011;29781;49.480;8.512;2023-06-22T08:17:20;7.97;;;6.40;;
44116;SDS011;29781;49.480;8.512;2023-06-22T08:19:45;10.30;;;6.75;;
44116;SDS011;29781;49.480;8.512;2023-06-22T08:22:11;8.10;;;6.20;;
44116;SDS011;29781;49.480;8.512;2023-06-22T08:24:36;10.88;;;5.88;;
44116;SDS011;29781;49.480;8.512;2023-06-22T08:27:02;8.60;;;6.57;;
44116;SDS011;29781;49.480;8.512;2023-06-22T08:29:27;8.95;;;5.90;;
44116;SDS011;29781;49.480;8.512;2023-06-22T08:31:53;6.40;;;5.57;;
44116;SDS011;29781;49.480;8.512;2023-06-22T08:34:18;8.05;;;6.15;;
44116;SDS011;29781;49.480;8.512;2023-06-22T08:36:52;6.38;;;5.18;;
44116;SDS011;29781;49.480;8.512;2023-06-22T08:39:19;6.78;;;5.88;;
44116;SDS011;29781;49.480;8.512;2023-06-22T08:41:45;6.65;;;5.88;;
44116;SDS011;29781;49.480;8.512;2023-06-22T08:44:11;8.30;;;5.75;;
44116;SDS011;29781;49.480;8.512;2023-06-22T08:46:36;6.00;;;5.50;;
44116;SDS011;29781;49.480;8.512;2023-06-22T08:49:03;6.03;;;5.50;;
44116;SDS011;29781;49.480;8.512;2023-06-22T08:51:29;6.07;;;5.57;;
44116;SDS011;29781;49.480;8.512;2023-06-22T08:53:54;7.25;;;5.90;;
44116;SDS011;29781;49.480;8.512;2023-06-22T08:56:20;6.32;;;5.72;;
44116;SDS011;29781;49.480;8.512;2023-06-22T08:58:46;11.15;;;5.85;;
44116;SDS011;29781;49.480;8.512;2023-06-22T09:01:11;6.72;;;6.03;;
44116;SDS011;29781;49.480;8.512;2023-06-22T09:03:37;7.63;;;5.72;;
44116;SDS011;29781;49.480;8.512;2023-06-22T09:06:02;5.82;;;5.22;;
44116;SDS011;29781;49.480;8.512;2023-06-22T09:08:28;8.95;;;5.97;;
44116;SDS011;29781;49.480;8.512;2023-06-22T09:10:54;6.18;;;5.55;;
44116;SDS011;29781;49.480;8.512;2023-06-22T09:13:19;7.35;;;6.13;;
44116;SDS011;29781;49.480;8.512;2023-06-22T09:15:45;6.90;;;5.32;;
44116;SDS011;29781;49.480;8.512;2023-06-22T09:18:10;7.07;;;5.80;;
44116;SDS011;29781;49.480;8.512;2023-06-22T09:20:36;8.60;;;5.25;;
44116;SDS011;29781;49.480;8.512;2023-06-22T09:23:02;8.35;;;6.03;;
44116;SDS011;29781;49.480;8.512;2023-06-22T09:25:27;7.43;;;5.75;;
44116;SDS011;29781;49.480;8.512;2023-06-22T09:27:53;6.75;;;5.43;;
44116;SDS011;29781;49.480;8.512;2023-06-22T09:30:19;6.93;;;5.40;;
44116;SDS011;29781;49.480;8.512;2023-06-22T09:32:44;9.60;;;5.65;;
44116;SDS011;29781;49.480;8.512;2023-06-22T09:35:10;7.15;;;5.97;;
44116;SDS011;29781;49.480;8.512;2023-06-22T09:37:37;8.25;;;5.07;;
44116;SDS011;29781;49.480;8.512;2023-06-22T09:40:03;8.50;;;6.03;;
44116;SDS011;29781;49.480;8.512;2023-06-22T09:42:37;6.57;;;5.20;;
44116;SDS011;29781;49.480;8.512;2023-06-22T09:45:03;8.13;;;5.47;;
44116;SDS011;29781;49.480;8.512;2023-06-22T09:47:29;9.35;;;5.20;;
44116;SDS011;29781;49.480;8.512;2023-06-22T09:49:55;7.85;;;5.68;;
44116;SDS011;29781;49.480;8.512;2023-06-22T09:52:21;9.73;;;5.57;;
44116;SDS011;29781;49.480;8.512;2023-06-22T09:54:46;9.63;;;5.85;;
44116;SDS011;29781;49.480;8.512;2023-06-22T09:57:12;7.32;;;5.50;;
44116;SDS011;29781;49.480;8.512;2023-06-22T09:59:38;6.70;;;5.95;;
44116;SDS011;29781;49.480;8.512;2023-06-22T10:02:06;8.10;;;5.55;;
44116;SDS011;29781;49.480;8.512;2023-06-22T10:04:33;11.25;;;5.68;;
44116;SDS011;29781;49.480;8.512;2023-06-22T10:06:59;12.82;;;6.20;;
44116;SDS011;29781;49.480;8.512;2023-06-22T10:09:25;7.57;;;5.63;;
44116;SDS011;29781;49.480;8.512;2023-06-22T10:11:50;9.15;;;5.53;;
44116;SDS011;29781;49.480;8.512;2023-06-22T10:14:16;10.77;;;5.50;;
44116;SDS011;29781;49.480;8.512;2023-06-22T10:16:41;8.50;;;5.78;;
44116;SDS011;29781;49.480;8.512;2023-06-22T10:19:07;8.52;;;5.85;;
44116;SDS011;29781;49.480;8.512;2023-06-22T10:21:33;9.30;;;5.60;;
44116;SDS011;29781;49.480;8.512;2023-06-22T10:23:59;13.60;;;6.32;;
44116;SDS011;29781;49.480;8.512;2023-06-22T10:26:30;8.27;;;6.30;;
44116;SDS011;29781;49.480;8.512;2023-06-22T10:28:57;10.98;;;6.07;;
44116;SDS011;29781;49.480;8.512;2023-06-22T10:31:22;8.98;;;6.13;;
44116;SDS011;29781;49.480;8.512;2023-06-22T10:33:48;11.23;;;6.13;;
44116;SDS011;29781;49.480;8.512;2023-06-22T10:36:14;10.85;;;6.10;;
44116;SDS011;29781;49.480;8.512;2023-06-22T10:38:40;10.77;;;6.13;;
44116;SDS011;29781;49.480;8.512;2023-06-22T10:41:05;11.90;;;5.90;;
44116;SDS011;29781;49.480;8.512;2023-06-22T10:43:31;8.13;;;6.70;;
44116;SDS011;29781;49.480;8.512;2023-06-22T10:45:57;8.50;;;5.95;;
44116;SDS011;29781;49.480;8.512;2023-06-22T10:48:22;11.68;;;6.45;;
44116;SDS011;29781;49.480;8.512;2023-06-22T10:50:48;10.57;;;6.47;;
44116;SDS011;29781;49.480;8.512;2023-06-22T10:53:13;9.90;;;6.15;;
44116;SDS011;29781;49.480;8.512;2023-06-22T10:55:39;9.02;;;5.80;;
44116;SDS011;29781;49.480;8.512;2023-06-22T10:58:04;11.25;;;6.25;;
44116;SDS011;29781;49.480;8.512;2023-06-22T11:00:30;11.00;;;6.35;;
44116;SDS011;29781;49.480;8.512;2023-06-22T11:02:55;9.60;;;6.55;;
44116;SDS011;29781;49.480;8.512;2023-06-22T11:05:21;12.77;;;6.45;;
44116;SDS011;29781;49.480;8.512;2023-06-22T11:07:47;8.07;;;6.05;;
44116;SDS011;29781;49.480;8.512;2023-06-22T11:10:14;13.60;;;5.90;;
44116;SDS011;29781;49.480;8.512;2023-06-22T11:12:40;10.65;;;6.60;;
44116;SDS011;29781;49.480;8.512;2023-06-22T11:15:05;10.93;;;5.97;;
44116;SDS011;29781;49.480;8.512;2023-06-22T11:17:31;9.55;;;6.50;;
44116;SDS011;29781;49.480;8.512;2023-06-22T11:19:57;9.48;;;6.10;;
44116;SDS011;29781;49.480;8.512;2023-06-22T11:22:25;9.25;;;6.75;;
44116;SDS011;29781;49.480;8.512;2023-06-22T11:24:50;9.65;;;6.07;;
44116;SDS011;29781;49.480;8.512;2023-06-22T11:27:16;9.25;;;6.18;;
44116;SDS011;29781;49.480;8.512;2023-06-22T11:29:41;10.57;;;6.57;;
44116;SDS011;29781;49.480;8.512;2023-06-22T11:32:07;8.98;;;6.10;;
44116;SDS011;29781;49.480;8.512;2023-06-22T11:34:32;10.35;;;6.72;;
44116;SDS011;29781;49.480;8.512;2023-06-22T11:36:58;11.55;;;6.32;;
44116;SDS011;29781;49.480;8.512;2023-06-22T11:39:24;12.13;;;6.03;;
44116;SDS011;29781;49.480;8.512;2023-06-22T11:41:49;11.10;;;5.88;;
44116;SDS011;29781;49.480;8.512;2023-06-22T11:44:15;11.10;;;6.05;;
44116;SDS011;29781;49.480;8.512;2023-06-22T11:46:40;9.05;;;6.20;;
44116;SDS011;29781;49.480;8.512;2023-06-22T11:49:06;10.73;;;5.90;;
44116;SDS011;29781;49.480;8.512;2023-06-22T11:51:31;11.52;;;6.30;;
44116;SDS011;29781;49.480;8.512;2023-06-22T11:53:57;11.90;;;6.60;;
44116;SDS011;29781;49.480;8.512;2023-06-22T11:56:23;11.77;;;5.63;;
44116;SDS011;29781;49.480;8.512;2023-06-22T11:58:49;11.93;;;5.70;;
44116;SDS011;29781;49.480;8.512;2023-06-22T12:01:14;10.35;;;6.28;;
44116;SDS011;29781;49.480;8.512;2023-06-22T12:03:40;11.48;;;5.75;;
44116;SDS011;29781;49.480;8.512;2023-06-22T12:06:08;8.55;;;5.32;;
44116;SDS011;29781;49.480;8.512;2023-06-22T12:08:33;10.30;;;5.88;;
44116;SDS011;29781;49.480;8.512;2023-06-22T12:10:59;11.32;;;6.28;;
44116;SDS011;29781;49.480;8.512;2023-06-22T12:13:24;7.47;;;6.00;;
44116;SDS011;29781;49.480;8.512;2023-06-22T12:15:50;10.60;;;5.28;;
44116;SDS011;29781;49.480;8.512;2023-06-22T12:18:17;10.52;;;5.65;;
44116;SDS011;29781;49.480;8.512;2023-06-22T12:20:45;10.82;;;5.93;;
44116;SDS011;29781;49.480;8.512;2023-06-22T12:23:11;14.70;;;6.35;;
44116;SDS011;29781;49.480;8.512;2023-06-22T12:25:36;13.80;;;6.30;;
44116;SDS011;29781;49.480;8.512;2023-06-22T12:28:02;9.60;;;5.78;;
44116;SDS011;29781;49.480;8.512;2023-06-22T12:30:29;8.98;;;5.88;;
44116;SDS011;29781;49.480;8.512;2023-06-22T12:32:55;12.13;;;5.72;;
44116;SDS011;29781;49.480;8.512;2023-06-22T12:35:20;9.68;;;6.15;;
44116;SDS011;29781;49.480;8.512;2023-06-22T12:37:46;10.60;;;5.82;;
44116;SDS011;29781;49.480;8.512;2023-06-22T12:40:12;10.13;;;5.90;;
44116;SDS011;29781;49.480;8.512;2023-06-22T12:42:37;9.55;;;5.68;;
44116;SDS011;29781;49.480;8.512;2023-06-22T12:45:03;8.93;;;5.80;;
44116;SDS011;29781;49.480;8.512;2023-06-22T12:47:29;11.95;;;5.65;;
44116;SDS011;29781;49.480;8.512;2023-06-22T12:49:56;10.52;;;6.53;;
44116;SDS011;29781;49.480;8.512;2023-06-22T12:52:21;9.93;;;5.80;;
44116;SDS011;29781;49.480;8.512;2023-06-22T12:54:47;8.77;;;5.55;;
44116;SDS011;29781;49.480;8.512;2023-06-22T12:57:13;12.57;;;5.70;;
44116;SDS011;29781;49.480;8.512;2023-06-22T12:59:39;8.40;;;5.97;;
44116;SDS011;29781;49.480;8.512;2023-06-22T13:02:05;10.55;;;6.05;;
44116;SDS011;29781;49.480;8.512;2023-06-22T13:04:30;9.60;;;5.65;;
44116;SDS011;29781;49.480;8.512;2023-06-22T13:06:56;9.43;;;5.88;;
44116;SDS011;29781;49.480;8.512;2023-06-22T13:09:21;9.88;;;5.85;;
44116;SDS011;29781;49.480;8.512;2023-06-22T13:11:47;12.20;;;7.10;;
44116;SDS011;29781;49.480;8.512;2023-06-22T13:14:12;9.27;;;5.70;;
44116;SDS011;29781;49.480;8.512;2023-06-22T13:16:38;13.40;;;6.75;;
44116;SDS011;29781;49.480;8.512;2023-06-22T13:19:04;12.60;;;6.18;;
44116;SDS011;29781;49.480;8.512;2023-06-22T13:21:30;11.77;;;6.00;;
44116;SDS011;29781;49.480;8.512;2023-06-22T13:23:55;13.57;;;5.88;;
44116;SDS011;29781;49.480;8.512;2023-06-22T13:26:21;12.82;;;5.68;;
44116;SDS011;29781;49.480;8.512;2023-06-22T13:28:47;8.88;;;5.72;;
44116;SDS011;29781;49.480;8.512;2023-06-22T13:31:13;11.07;;;6.32;;
44116;SDS011;29781;49.480;8.512;2023-06-22T13:33:38;11.93;;;5.93;;
44116;SDS011;29781;49.480;8.512;2023-06-22T13:36:05;12.13;;;5.80;;
44116;SDS011;29781;49.480;8.512;2023-06-22T13:38:32;11.63;;;5.90;;
44116;SDS011;29781;49.480;8.512;2023-06-22T13:40:59;10.70;;;5.63;;
44116;SDS011;29781;49.480;8.512;2023-06-22T13:43:26;10.00;;;6.10;;
44116;SDS011;29781;49.480;8.512;2023-06-22T13:45:52;14.23;;;5.72;;
44116;SDS011;29781;49.480;8.512;2023-06-22T13:48:17;12.80;;;5.82;;
44116;SDS011;29781;49.480;8.512;2023-06-22T13:50:43;10.77;;;5.75;;
44116;SDS011;29781;49.480;8.512;2023-06-22T13:53:09;10.98;;;6.40;;
44116;SDS011;29781;49.480;8.512;2023-06-22T13:55:34;10.48;;;5.75;;
44116;SDS011;29781;49.480;8.512;2023-06-22T13:58:00;10.85;;;5.90;;
44116;SDS011;29781;49.480;8.512;2023-06-22T14:00:25;11.18;;;5.47;;
44116;SDS011;29781;49.480;8.512;2023-06-22T14:02:52;13.00;;;6.00;;
44116;SDS011;29781;49.480;8.512;2023-06-22T14:05:18;14.95;;;6.68;;
44116;SDS011;29781;49.480;8.512;2023-06-22T14:07:44;10.48;;;5.78;;
44116;SDS011;29781;49.480;8.512;2023-06-22T14:10:10;12.07;;;6.10;;
44116;SDS011;29781;49.480;8.512;2023-06-22T14:12:35;11.80;;;6.30;;
44116;SDS011;29781;49.480;8.512;2023-06-22T14:15:01;13.80;;;6.53;;
44116;SDS011;29781;49.480;8.512;2023-06-22T14:17:27;10.70;;;6.25;;
44116;SDS011;29781;49.480;8.512;2023-06-22T14:19:52;9.98;;;6.07;;
44116;SDS011;29781;49.480;8.512;2023-06-22T14:22:18;12.38;;;6.85;;
44116;SDS011;29781;49.480;8.512;2023-06-22T14:24:45;16.00;;;6.60;;
44116;SDS011;29781;49.480;8.512;2023-06-22T14:27:11;12.77;;;6.07;;
44116;SDS011;29781;49.480;8.512;2023-06-22T14:29:36;9.65;;;6.25;;
44116;SDS011;29781;49.480;8.512;2023-06-22T14:32:02;11.20;;;6.28;;
44116;SDS011;29781;49.480;8.512;2023-06-22T14:34:29;13.68;;;6.45;;
44116;SDS011;29781;49.480;8.512;2023-06-22T14:36:54;13.95;;;6.85;;
44116;SDS011;29781;49.480;8.512;2023-06-22T14:39:20;12.95;;;7.00;;
44116;SDS011;29781;49.480;8.512;2023-06-22T14:41:46;8.25;;;5.95;;
44116;SDS011;29781;49.480;8.512;2023-06-22T14:44:11;13.77;;;6.68;;